createdAt,value
2019-05-15T00:02:18.442Z,102751.00
2019-05-15T00:07:22.575Z,102740.00
2019-05-15T00:12:28.458Z,102733.00
2019-05-15T00:17:33.055Z,102733.00
2019-05-15T00:22:38.831Z,102726.00
2019-05-15T00:27:43.654Z,102728.00
2019-05-15T00:32:48.863Z,102730.00
2019-05-15T00:37:53.270Z,102716.00
2019-05-15T00:42:57.937Z,102721.00
2019-05-15T00:48:02.338Z,102717.00
2019-05-15T00:53:08.627Z,102721.00
2019-05-15T00:58:13.266Z,102720.00
2019-05-15T01:03:18.233Z,102715.00
2019-05-15T01:08:22.950Z,102718.00
2019-05-15T01:13:28.196Z,102700.00
2019-05-15T01:18:32.805Z,102715.00
2019-05-15T01:23:39.032Z,102709.00
2019-05-15T01:28:43.568Z,102704.00
2019-05-15T01:33:48.226Z,102704.00
2019-05-15T01:38:52.665Z,102701.00
2019-05-15T01:43:58.141Z,102712.00
2019-05-15T01:49:02.835Z,102713.00
2019-05-15T01:54:09.076Z,102705.00
2019-05-15T01:59:13.767Z,102700.00
2019-05-15T02:04:19.719Z,102694.00
2019-05-15T02:09:24.975Z,102697.00
2019-05-15T02:14:29.387Z,102691.00
2019-05-15T02:19:33.867Z,102691.00
2019-05-15T02:24:39.076Z,102692.00
2019-05-15T02:29:43.832Z,102683.00
2019-05-15T02:34:50.017Z,102678.00
2019-05-15T02:39:54.689Z,102669.00
2019-05-15T02:44:59.428Z,102680.00
2019-05-15T02:50:05.041Z,102671.00
2019-05-15T02:55:09.913Z,102674.00
2019-05-15T03:00:32.667Z,102681.00
2019-05-15T03:05:20.926Z,102679.00
2019-05-15T03:10:25.410Z,102668.00
2019-05-15T03:15:29.959Z,102670.00
2019-05-15T03:20:34.391Z,102672.00
2019-05-15T03:25:40.669Z,102663.00
2019-05-15T03:31:14.870Z,102675.00
2019-05-15T03:35:54.476Z,102655.00
2019-05-15T03:40:59.769Z,102650.00
2019-05-15T03:46:04.644Z,102660.00
2019-05-15T03:51:09.522Z,102667.00
2019-05-15T03:56:14.241Z,102661.00
2019-05-15T04:01:32.547Z,102663.00
2019-05-15T04:06:29.919Z,102642.00
2019-05-15T04:11:34.790Z,102659.00
2019-05-15T04:16:39.507Z,102650.00
2019-05-15T04:21:45.031Z,102653.00
2019-05-15T04:26:51.474Z,102642.00
2019-05-15T04:32:02.484Z,102648.00
2019-05-15T04:37:09.877Z,102651.00
2019-05-15T04:42:14.554Z,102654.00
2019-05-15T04:47:19.369Z,102645.00
2019-05-15T04:52:25.068Z,102644.00
2019-05-15T04:57:33.777Z,102634.00
2019-05-15T05:02:39.467Z,102645.00
2019-05-15T05:07:43.292Z,102642.00
2019-05-15T05:12:50.804Z,102630.00
2019-05-15T05:17:53.971Z,102630.00
2019-05-15T05:22:58.479Z,102645.00
2019-05-15T05:28:02.929Z,102633.00
2019-05-15T05:33:08.526Z,102623.00
2019-05-15T05:38:13.192Z,102634.00
2019-05-15T05:43:18.360Z,102635.00
2019-05-15T05:48:22.989Z,102622.00
2019-05-15T05:53:28.685Z,102633.00
2019-05-15T05:58:33.248Z,102641.00
2019-05-15T06:03:39.016Z,102634.00
2019-05-15T06:08:43.557Z,102638.00
2019-05-15T06:13:52.346Z,102645.00
2019-05-15T06:18:54.290Z,102632.00
2019-05-15T06:24:04.875Z,102633.00
2019-05-15T06:29:05.214Z,102648.00
2019-05-15T06:34:09.714Z,102651.00
2019-05-15T06:39:14.142Z,102641.00
2019-05-15T06:44:18.955Z,102644.00
2019-05-15T06:49:23.588Z,102653.00
2019-05-15T06:54:28.516Z,102646.00
2019-05-15T06:59:34.661Z,102638.00
2019-05-15T07:04:39.934Z,102645.00
2019-05-15T07:09:44.410Z,102640.00
2019-05-15T07:15:00.612Z,102635.00
2019-05-15T07:20:13.064Z,102642.00
2019-05-15T07:25:18.886Z,102642.00
2019-05-15T07:30:24.029Z,102627.00
2019-05-15T07:35:28.870Z,102628.00
2019-05-15T07:40:33.579Z,102612.00
2019-05-15T07:45:43.508Z,102613.00
2019-05-15T07:50:44.641Z,102617.00
2019-05-15T07:55:50.720Z,102617.00
2019-05-15T08:00:55.503Z,102613.00
2019-05-15T08:06:02.940Z,102622.00
2019-05-15T08:11:17.532Z,102621.00
2019-05-15T08:16:12.608Z,102610.00
2019-05-15T08:21:18.817Z,102619.00
2019-05-15T08:26:23.252Z,102608.00
2019-05-15T08:31:28.872Z,102596.00
2019-05-15T08:36:33.591Z,102591.00
2019-05-15T08:41:39.154Z,102594.00
2019-05-15T08:46:44.413Z,102592.00
2019-05-15T08:51:49.086Z,102585.00
2019-05-15T08:56:53.549Z,102588.00
2019-05-15T09:01:58.308Z,102577.00
2019-05-15T09:07:02.792Z,102573.00
2019-05-15T09:12:08.307Z,102568.00
2019-05-15T09:17:13.114Z,102568.00
2019-05-15T09:22:18.711Z,102562.00
2019-05-15T09:27:23.822Z,102552.00
2019-05-15T09:32:28.660Z,102560.00
2019-05-15T09:37:33.794Z,102546.00
2019-05-15T09:42:38.988Z,102546.00
2019-05-15T09:47:43.686Z,102544.00
2019-05-15T09:52:50.084Z,102542.00
2019-05-15T09:57:55.107Z,102534.00
2019-05-15T10:02:59.853Z,102528.00
2019-05-15T10:08:04.509Z,102518.00
2019-05-15T10:13:09.136Z,102519.00
2019-05-15T10:18:13.773Z,102524.00
2019-05-15T10:23:19.578Z,102508.00
2019-05-15T10:28:24.583Z,102513.00
2019-05-15T10:33:29.724Z,102496.00
2019-05-15T10:38:34.502Z,102491.00
2019-05-15T10:43:46.412Z,102499.00
2019-05-15T10:48:45.526Z,102483.00
2019-05-15T10:53:49.934Z,102483.00
2019-05-15T10:58:54.510Z,102477.00
2019-05-15T11:03:59.054Z,102473.00
2019-05-15T11:09:03.645Z,102471.00
2019-05-15T11:14:09.165Z,102466.00
2019-05-15T11:19:13.893Z,102456.00
2019-05-15T11:24:19.519Z,102459.00
2019-05-15T11:29:24.232Z,102458.00
2019-05-15T11:34:29.150Z,102456.00
2019-05-15T11:39:33.939Z,102445.00
2019-05-15T11:44:38.902Z,102447.00
2019-05-15T11:49:43.610Z,102448.00
2019-05-15T11:54:49.357Z,102441.00
2019-05-15T11:59:55.610Z,102441.00
2019-05-15T12:05:00.391Z,102438.00
2019-05-15T12:10:10.385Z,102443.00
2019-05-15T12:15:13.542Z,102443.00
2019-05-15T12:25:29.339Z,102434.00
2019-05-15T12:30:30.815Z,102431.00
2019-05-15T12:35:35.416Z,102420.00
2019-05-15T13:01:14.814Z,102418.00
2019-05-15T13:06:11.161Z,102407.00
2019-05-15T13:11:17.890Z,102417.00
2019-05-15T13:16:21.860Z,102408.00
2019-05-15T13:21:29.641Z,102410.00
2019-05-15T13:26:34.298Z,102398.00
2019-05-15T13:31:38.869Z,102406.00
2019-05-15T13:36:43.373Z,102398.00
2019-05-15T13:41:48.356Z,102386.00
2019-05-15T13:46:53.105Z,102389.00
2019-05-15T13:51:59.343Z,102397.00
2019-05-15T13:57:04.107Z,102392.00
2019-05-15T14:02:08.792Z,102392.00
2019-05-15T14:07:13.392Z,102390.00
2019-05-15T14:12:18.314Z,102386.00
2019-05-15T14:17:22.980Z,102381.00
2019-05-15T14:22:27.492Z,102381.00
2019-05-15T14:27:31.916Z,102382.00
2019-05-15T14:32:39.177Z,102384.00
2019-05-15T14:37:42.886Z,102393.00
2019-05-15T14:42:48.628Z,102373.00
2019-05-15T14:47:53.178Z,102368.00
2019-05-15T14:52:58.575Z,102375.00
2019-05-15T14:58:03.151Z,102354.00
2019-05-15T15:03:09.845Z,102368.00
2019-05-15T15:08:21.725Z,102355.00
2019-05-15T15:13:20.184Z,102358.00
2019-05-15T15:18:24.794Z,102363.00
2019-05-15T15:23:29.304Z,102358.00
2019-05-15T15:28:33.827Z,102364.00
2019-05-15T15:33:39.231Z,102359.00
2019-05-15T15:38:44.255Z,102364.00
2019-05-15T15:43:48.860Z,102363.00
2019-05-15T15:48:53.372Z,102370.00
2019-05-15T15:53:57.902Z,102354.00
2019-05-15T15:59:02.472Z,102353.00
2019-05-15T16:04:08.487Z,102352.00
2019-05-15T16:09:13.358Z,102334.00
2019-05-15T16:14:18.095Z,102328.00
2019-05-15T16:19:22.882Z,102323.00
2019-05-15T16:24:29.324Z,102332.00
2019-05-15T16:29:33.586Z,102329.00
2019-05-15T16:34:39.368Z,102332.00
2019-05-15T16:39:44.280Z,102337.00
2019-05-15T16:44:49.118Z,102326.00
2019-05-15T16:49:53.585Z,102322.00
2019-05-15T16:54:58.273Z,102329.00
2019-05-15T17:00:02.657Z,102310.00
2019-05-15T17:05:07.339Z,102329.00
2019-05-15T17:10:11.974Z,102326.00
2019-05-15T17:15:16.554Z,102331.00
2019-05-15T17:20:21.128Z,102334.00
2019-05-15T17:25:25.897Z,102326.00
2019-05-15T17:30:30.461Z,102341.00
2019-05-15T17:35:35.023Z,102332.00
2019-05-15T17:40:39.598Z,102330.00
2019-05-15T17:45:44.322Z,102329.00
2019-05-15T17:50:52.511Z,102317.00
2019-05-15T17:55:55.148Z,102319.00
2019-05-15T18:00:59.733Z,102315.00
2019-05-15T18:06:04.696Z,102313.00
2019-05-15T18:11:09.193Z,102313.00
2019-05-15T18:16:14.042Z,102309.00
2019-05-15T18:21:21.109Z,102316.00
2019-05-15T18:26:25.873Z,102318.00
2019-05-15T18:31:30.609Z,102329.00
2019-05-15T18:36:35.045Z,102328.00
2019-05-15T18:41:39.565Z,102329.00
2019-05-15T18:46:44.130Z,102325.00
2019-05-15T18:51:48.695Z,102317.00
2019-05-15T18:56:53.276Z,102321.00
2019-05-15T19:01:58.636Z,102327.00
2019-05-15T19:07:03.285Z,102332.00
2019-05-15T19:12:09.229Z,102328.00
2019-05-15T19:17:14.751Z,102326.00
2019-05-15T19:22:19.414Z,102327.00
2019-05-15T19:27:24.009Z,102328.00
2019-05-15T19:32:28.510Z,102329.00
2019-05-15T19:37:33.868Z,102334.00
2019-05-15T19:42:38.704Z,102341.00
2019-05-15T19:47:43.171Z,102334.00
2019-05-15T19:52:48.300Z,102323.00
2019-05-15T19:57:52.837Z,102334.00
2019-05-15T20:02:58.234Z,102328.00
2019-05-15T20:08:03.581Z,102329.00
2019-05-15T20:13:08.989Z,102332.00
2019-05-15T20:18:13.635Z,102328.00
2019-05-15T20:23:24.703Z,102324.00
2019-05-15T20:28:29.593Z,102328.00
2019-05-15T20:33:34.258Z,102321.00
2019-05-15T20:38:39.406Z,102318.00
2019-05-15T20:43:44.215Z,102307.00
2019-05-15T20:48:48.910Z,102311.00
2019-05-15T20:53:53.319Z,102322.00
2019-05-15T20:58:58.404Z,102317.00
2019-05-15T21:04:16.200Z,102299.00
2019-05-15T21:09:12.271Z,102300.00
2019-05-15T21:14:16.670Z,102295.00
2019-05-15T21:19:21.083Z,102295.00
2019-05-15T21:24:25.537Z,102299.00
2019-05-15T21:29:30.141Z,102301.00
2019-05-15T21:34:38.011Z,102296.00
2019-05-15T21:39:40.755Z,102300.00
2019-05-15T21:44:45.244Z,102294.00
2019-05-15T21:49:49.727Z,102285.00
2019-05-15T21:54:54.212Z,102285.00
2019-05-15T22:00:00.701Z,102283.00
2019-05-15T22:05:08.306Z,102283.00
2019-05-15T22:10:12.685Z,102278.00
2019-05-15T22:15:18.972Z,102279.00
2019-05-15T22:20:23.634Z,102270.00
2019-05-15T22:25:28.239Z,102264.00
2019-05-15T22:30:32.760Z,102249.00
2019-05-15T22:35:37.751Z,102255.00
2019-05-15T22:40:44.998Z,102239.00
2019-05-15T22:45:49.509Z,102246.00
2019-05-15T22:50:54.021Z,102235.00
2019-05-15T22:55:58.886Z,102232.00
2019-05-15T23:01:03.564Z,102228.00
2019-05-15T23:06:08.383Z,102227.00
2019-05-15T23:11:13.202Z,102212.00
2019-05-15T23:16:18.441Z,102198.00
2019-05-15T23:21:22.858Z,102200.00
2019-05-15T23:26:28.251Z,102190.00
2019-05-15T23:31:32.875Z,102189.00
2019-05-15T23:36:37.902Z,102193.00
2019-05-15T23:41:42.471Z,102191.00
2019-05-15T23:46:48.791Z,102191.00
2019-05-15T23:51:53.267Z,102185.00
2019-05-15T23:56:58.395Z,102199.00
